Map

Track Data

SID SEASON NUMBER BASIN SUBBASIN NAME ISO_TIME NATURE LAT LON WMO_WIND WMO_PRES WMO_AGENCY TRACK_TYPE DIST2LAND LANDFALL IFLAG USA_AGENCY USA_ATCF_ID USA_LAT USA_LON USA_RECORD USA_STATUS USA_WIND USA_PRES USA_SSHS USA_R34_NE USA_R34_SE USA_R34_SW USA_R34_NW USA_R50_NE USA_R50_SE USA_R50_SW USA_R50_NW USA_R64_NE USA_R64_SE USA_R64_SW USA_R64_NW USA_POCI USA_ROCI USA_RMW USA_EYE TOKYO_LAT TOKYO_LON TOKYO_GRADE TOKYO_WIND TOKYO_PRES TOKYO_R50_DIR TOKYO_R50_LONG TOKYO_R50_SHORT TOKYO_R30_DIR TOKYO_R30_LONG TOKYO_R30_SHORT TOKYO_LAND CMA_LAT CMA_LON CMA_CAT CMA_WIND CMA_PRES HKO_LAT HKO_LON HKO_CAT HKO_WIND HKO_PRES NEWDELHI_LAT NEWDELHI_LON NEWDELHI_GRADE NEWDELHI_WIND NEWDELHI_PRES NEWDELHI_CI NEWDELHI_DP NEWDELHI_POCI REUNION_LAT REUNION_LON REUNION_TYPE REUNION_WIND REUNION_PRES REUNION_TNUM REUNION_CI REUNION_RMW REUNION_R34_NE REUNION_R34_SE REUNION_R34_SW REUNION_R34_NW REUNION_R50_NE REUNION_R50_SE REUNION_R50_SW REUNION_R50_NW REUNION_R64_NE REUNION_R64_SE REUNION_R64_SW REUNION_R64_NW BOM_LAT BOM_LON BOM_TYPE BOM_WIND BOM_PRES BOM_TNUM BOM_CI BOM_RMW BOM_R34_NE BOM_R34_SE BOM_R34_SW BOM_R34_NW BOM_R50_NE BOM_R50_SE BOM_R50_SW BOM_R50_NW BOM_R64_NE BOM_R64_SE BOM_R64_SW BOM_R64_NW BOM_ROCI BOM_POCI BOM_EYE BOM_POS_METHOD BOM_PRES_METHOD NADI_LAT NADI_LON NADI_CAT NADI_WIND NADI_PRES WELLINGTON_LAT WELLINGTON_LON WELLINGTON_WIND WELLINGTON_PRES DS824_LAT DS824_LON DS824_STAGE DS824_WIND DS824_PRES TD9636_LAT TD9636_LON TD9636_STAGE TD9636_WIND TD9636_PRES TD9635_LAT TD9635_LON TD9635_WIND TD9635_PRES TD9635_ROCI NEUMANN_LAT NEUMANN_LON NEUMANN_CLASS NEUMANN_WIND NEUMANN_PRES MLC_LAT MLC_LON MLC_CLASS MLC_WIND MLC_PRES USA_GUST BOM_GUST BOM_GUST_PER REUNION_GUST REUNION_GUST_PER USA_SEAHGT USA_SEARAD_NE USA_SEARAD_SE USA_SEARAD_SW USA_SEARAD_NW STORM_SPEED STORM_DIR
1927289N17273 1927 58 NA CS NOT_NAMED 1927-10-16 00:00:00 TS 16.5000 -87.0000 30 hurdat_atl main 78 78 O_____________ hurdat_atl AL061927 16.5000 -87.0000 TD 30 -1 3 68
1927289N17273 1927 58 NA CS NOT_NAMED 1927-10-16 03:00:00 TS 16.5525 -86.8625 main 89 89 P_____________ AL061927 16.5525 -86.8625 TD 30 -1 3 71
1927289N17273 1927 58 NA CS NOT_NAMED 1927-10-16 06:00:00 TS 16.6000 -86.7000 30 hurdat_atl main 92 90 O_____________ hurdat_atl AL061927 16.6000 -86.7000 TD 30 -1 4 76
1927289N17273 1927 58 NA CS NOT_NAMED 1927-10-16 09:00:00 TS 16.6424 -86.4874 main 90 90 P_____________ AL061927 16.6424 -86.4874 TD 30 -1 5 78
1927289N17273 1927 58 NA CS NOT_NAMED 1927-10-16 12:00:00 TS 16.7000 -86.2000 30 hurdat_atl main 95 90 O_____________ hurdat_atl AL061927 16.7000 -86.2000 TD 30 -1 6 77
1927289N17273 1927 58 NA CS NOT_NAMED 1927-10-16 15:00:00 TS 16.7849 -85.8374 main 100 100 P_____________ AL061927 16.7849 -85.8374 TD 32 -1 8 75
1927289N17273 1927 58 NA CS NOT_NAMED 1927-10-16 18:00:00 TS 16.9000 -85.4000 35 hurdat_atl main 111 111 O_____________ hurdat_atl AL061927 16.9000 -85.4000 TS 35 0 9 74
1927289N17273 1927 58 NA CS NOT_NAMED 1927-10-16 21:00:00 TS 17.0425 -84.9075 main 123 123 P_____________ AL061927 17.0425 -84.9075 TS 37 0 10 73
1927289N17273 1927 58 NA CS NOT_NAMED 1927-10-17 00:00:00 TS 17.2000 -84.4000 40 hurdat_atl main 148 148 O_____________ hurdat_atl AL061927 17.2000 -84.4000 TS 40 0 10 72
1927289N17273 1927 58 NA CS NOT_NAMED 1927-10-17 03:00:00 TS 17.3499 -83.9349 main 173 173 P_____________ AL061927 17.3499 -83.9349 TS 40 0 9 71
1927289N17273 1927 58 NA CS NOT_NAMED 1927-10-17 06:00:00 TS 17.5000 -83.5000 40 hurdat_atl main 208 208 O_____________ hurdat_atl AL061927 17.5000 -83.5000 TS 40 0 9 70
1927289N17273 1927 58 NA CS NOT_NAMED 1927-10-17 09:00:00 TS 17.6424 -83.0849 main 238 238 P_____________ AL061927 17.6424 -83.0849 TS 40 0 8 68
1927289N17273 1927 58 NA CS NOT_NAMED 1927-10-17 12:00:00 TS 17.8000 -82.7000 40 hurdat_atl main 281 281 O_____________ hurdat_atl AL061927 17.8000 -82.7000 TS 40 0 8 64
1927289N17273 1927 58 NA CS NOT_NAMED 1927-10-17 15:00:00 TS 17.9849 -82.3349 main 323 323 P_____________ AL061927 17.9849 -82.3349 TS 40 0 8 59
1927289N17273 1927 58 NA CS NOT_NAMED 1927-10-17 18:00:00 TS 18.2000 -82.0000 40 hurdat_atl main 357 349 O_____________ hurdat_atl AL061927 18.2000 -82.0000 TS 40 0 7 53
1927289N17273 1927 58 NA CS NOT_NAMED 1927-10-17 21:00:00 TS 18.4348 -81.7073 main 349 321 P_____________ AL061927 18.4348 -81.7073 TS 40 0 8 49
1927289N17273 1927 58 NA CS NOT_NAMED 1927-10-18 00:00:00 TS 18.7000 -81.4000 40 hurdat_atl main 321 295 O_____________ hurdat_atl AL061927 18.7000 -81.4000 TS 40 0 8 49
1927289N17273 1927 58 NA CS NOT_NAMED 1927-10-18 03:00:00 TS 18.9848 -81.0373 main 288 262 P_____________ AL061927 18.9848 -81.0373 TS 40 0 10 52
1927289N17273 1927 58 NA CS NOT_NAMED 1927-10-18 06:00:00 TS 19.3000 -80.6000 40 hurdat_atl main 262 234 O_____________ hurdat_atl AL061927 19.3000 -80.6000 TS 40 0 11 54
1927289N17273 1927 58 NA CS NOT_NAMED 1927-10-18 09:00:00 TS 19.6194 -80.1242 main 228 152 P_____________ AL061927 19.6194 -80.1242 TS 40 0 13 56
1927289N17273 1927 58 NA CS NOT_NAMED 1927-10-18 12:00:00 TS 20.0000 -79.5000 40 hurdat_atl main 152 73 O_____________ hurdat_atl AL061927 20.0000 -79.5000 TS 40 0 16 57
1927289N17273 1927 58 NA CS NOT_NAMED 1927-10-18 15:00:00 TS 20.4615 -78.7189 main 59 0 P_____________ AL061927 20.4615 -78.7189 TS 40 0 20 59
1927289N17273 1927 58 NA NA NOT_NAMED 1927-10-18 18:00:00 TS 21.0000 -77.7000 40 hurdat_atl main 0 0 O_____________ hurdat_atl AL061927 21.0000 -77.7000 TS 40 0 24 63
1927289N17273 1927 58 NA NA NOT_NAMED 1927-10-18 21:00:00 TS 21.5623 -76.4388 main 44 44 P_____________ AL061927 21.5623 -76.4388 TS 40 0 28 64
1927289N17273 1927 58 NA NA NOT_NAMED 1927-10-19 00:00:00 TS 22.2000 -75.0000 40 hurdat_atl main 147 147 O_____________ hurdat_atl AL061927 22.2000 -75.0000 TS 40 0 30 63
1927289N17273 1927 58 NA NA NOT_NAMED 1927-10-19 03:00:00 TS 22.9274 -73.5114 main 192 192 P_____________ AL061927 22.9274 -73.5114 TS 37 0 31 62
1927289N17273 1927 58 NA NA NOT_NAMED 1927-10-19 06:00:00 ET 23.7000 -72.0000 35 hurdat_atl main 297 O_____________ hurdat_atl AL061927 23.7000 -72.0000 EX 35 -4 32 61

About IBTrACS Database

This database is a web-friendly format of International Best Track Archive for Climate Stewardship (IBTrACS), a global best track data archive curated by NOAA dating back to 1842.

Updated: 2021-10-21